Flight Track Log - Related Links

Times and Time Zones

All times are in EDT time to prevent confusion due to time zone crossing. See the TAM3420 flight status page for this flight to view local times or setup timezone preferences in your user account.

Time Position Orientation Groundspeed Altitude Reporting Facility
EDT Latitude Longitude Course Direction KTS MPH feet Rate Location/Type
Sat 09:12:12 AM -22.7840 -43.1930 67° East 177 204 1,500  Level FlightAware ADS-B
Sat 09:12:42 AM -22.7630 -43.1730 41° Northeast 208 239 2,100 2,386 Climbing FlightAware ADS-B
Sat 09:13:35 AM -22.6950 -43.1610 North 244 281 4,800 2,707 Climbing FlightAware ADS-B
Sat 09:14:04 AM -22.6630 -43.1750 338° Northwest 263 303 5,800 2,571 Climbing FlightAware ADS-B
Sat 09:14:31 AM -22.6310 -43.1870 341° North 262 302 7,200 3,059 Climbing FlightAware ADS-B
Sat 09:14:55 AM -22.6040 -43.1970 341° North 256 295 8,400 2,280 Climbing FlightAware ADS-B
Sat 09:15:21 AM -22.5740 -43.2100 338° Northwest 275 316 9,100 1,750 Climbing FlightAware ADS-B
Sat 09:15:43 AM -22.5470 -43.2210 339° North 289 333 9,800 1,729 Climbing FlightAware ADS-B
Sat 09:16:20 AM -22.5160 -43.2340 339° North 293 337 10,800 2,259 Climbing FlightAware ADS-B
Sat 09:17:08 AM -22.4500 -43.2620 339° North 298 343 13,000 1,888 Climbing FlightAware ADS-B
Sat 09:17:49 AM -22.4050 -43.2810 339° North 319 367 13,600 889 Climbing FlightAware ADS-B
Sat 09:18:29 AM -22.3400 -43.3080 339° North 365 420 14,200 1,291 Climbing FlightAware ADS-B
Sat 09:19:08 AM -22.2700 -43.3370 339° North 386 444 15,300 2,000 Climbing FlightAware ADS-B
Sat 09:19:53 AM -22.1990 -43.3670 339° North 384 442 17,000 2,040 Climbing FlightAware ADS-B
Sat 09:20:48 AM -22.0930 -43.4120 339° North 403 464 18,700 1,776 Climbing FlightAware ADS-B
Sat 09:21:31 AM -22.0260 -43.4400 339° North 405 466 19,900 2,000 Climbing FlightAware ADS-B
Sat 09:22:15 AM -21.9350 -43.4770 339° North 404 465 21,600 2,051 Climbing FlightAware ADS-B
Sat 09:22:50 AM -21.8710 -43.4950 345° North 410 472 22,600 1,538 Climbing FlightAware ADS-B
Sat 09:23:33 AM -21.7890 -43.5170 346° North 412 474 23,600 1,516 Climbing FlightAware ADS-B
Sat 09:24:21 AM -21.7010 -43.5410 346° North 413 475 24,900 1,326 Climbing FlightAware ADS-B
Sat 09:24:59 AM -21.6320 -43.5590 346° North 419 482 25,500 1,000 Climbing FlightAware ADS-B
Sat 09:25:57 AM -21.5340 -43.5850 346° North 423 487 26,500 981 Climbing FlightAware ADS-B
Sat 09:26:43 AM -21.4510 -43.6060 347° North 429 494 27,200 1,098 Climbing FlightAware ADS-B
Sat 09:27:19 AM -21.3660 -43.6270 347° North 431 496 28,000 1,186 Climbing FlightAware ADS-B
Sat 09:28:09 AM -21.2640 -43.6530 347° North 432 497 28,900 918 Climbing FlightAware ADS-B
Sat 09:28:44 AM -21.1970 -43.6700 347° North 437 503 29,300 789 Climbing FlightAware ADS-B
Sat 09:29:25 AM -21.1160 -43.6910 346° North 441 507 29,900 955 Climbing FlightAware ADS-B
Sat 09:30:12 AM -21.0160 -43.7150 347° North 441 507 30,700 1,034 Climbing FlightAware ADS-B
Sat 09:30:23 AM -20.9970 -43.7200 346° North 441 507 30,900 1,074 Climbing FlightAware ADS-B
Sat 09:31:47 AM -20.8260 -43.7630 347° North 435 501 32,400 1,125 Climbing FlightAware ADS-B
Sat 09:32:31 AM -20.7380 -43.7850 347° North 429 494 33,300 1,047 Climbing FlightAware ADS-B
Sat 09:33:13 AM -20.6580 -43.8050 347° North 429 494 33,900 767 Climbing FlightAware ADS-B
Sat 09:33:57 AM -20.5720 -43.8270 347° North 429 494 34,400 786 Climbing FlightAware ADS-B
Sat 09:34:37 AM -20.4970 -43.8450 347° North 427 491 35,000 371 Climbing FlightAware ADS-B
Sat 09:35:34 AM -20.4020 -43.8670 348° North 425 489 35,000  Level FlightAware ADS-B
Sat 09:36:16 AM -20.3050 -43.8910 347° North 427 491 35,000  Level FlightAware ADS-B
Sat 09:37:00 AM -20.2210 -43.9110 347° North 423 487 35,000  Level FlightAware ADS-B
Sat 09:37:40 AM -20.1420 -43.9300 347° North 422 486 35,000  Level FlightAware ADS-B
Sat 09:38:24 AM -20.0580 -43.9500 347° North 424 488 35,000  Level FlightAware ADS-B
Sat 09:39:04 AM -19.9820 -43.9680 347° North 425 489 35,000  Level FlightAware ADS-B
Sat 09:39:42 AM -19.9060 -43.9870 347° North 426 490 35,000  Level FlightAware ADS-B
Sat 09:40:28 AM -19.8180 -44.0070 348° North 434 499 35,000  Level FlightAware ADS-B
Sat 09:41:09 AM -19.7390 -44.0190 352° North 438 504 35,000  Level FlightAware ADS-B
Sat 09:41:52 AM -19.6510 -44.0330 351° North 440 506 35,000  Level FlightAware ADS-B
Sat 09:42:32 AM -19.5670 -44.0470 351° North 439 505 35,000  Level FlightAware ADS-B
Sat 09:43:17 AM -19.4830 -44.0680 347° North 433 498 35,000  Level FlightAware ADS-B
Sat 09:44:07 AM -19.3910 -44.0920 346° North 435 501 35,000  Level FlightAware ADS-B
Sat 09:44:52 AM -19.2970 -44.1160 346° North 437 503 35,000  Level FlightAware ADS-B
Sat 09:45:33 AM -19.2160 -44.1370 346° North 438 504 35,000  Level FlightAware ADS-B
Sat 09:46:13 AM -19.1390 -44.1570 346° North 439 505 35,000  Level FlightAware ADS-B
Sat 09:46:58 AM -19.0510 -44.1790 347° North 439 505 35,000  Level FlightAware ADS-B
Sat 09:47:38 AM -18.9680 -44.2010 346° North 437 503 35,000  Level FlightAware ADS-B
Sat 09:48:22 AM -18.8800 -44.2230 347° North 437 503 35,000  Level FlightAware ADS-B
Sat 09:49:03 AM -18.8010 -44.2440 346° North 437 503 35,000  Level FlightAware ADS-B
Sat 09:49:43 AM -18.7200 -44.2640 347° North 438 504 35,000  Level FlightAware ADS-B
Sat 09:50:28 AM -18.6330 -44.2860 347° North 438 504 35,000  Level FlightAware ADS-B
Sat 09:51:07 AM -18.5540 -44.3060 347° North 436 502 35,000  Level FlightAware ADS-B
Sat 09:51:47 AM -18.4760 -44.3260 346° North 432 497 35,000  Level FlightAware ADS-B
Sat 09:52:38 AM -18.3830 -44.3500 346° North 428 493 35,000  Level FlightAware ADS-B
Sat 09:53:18 AM -18.3040 -44.3700 346° North 427 491 35,000  Level FlightAware ADS-B
Sat 09:53:57 AM -18.2250 -44.3900 346° North 427 491 35,000  Level FlightAware ADS-B
Sat 09:54:42 AM -18.1380 -44.4120 346° North 430 495 35,000  Level FlightAware ADS-B
Sat 09:55:18 AM -18.0690 -44.4300 346° North 432 497 35,000  Level FlightAware ADS-B
Sat 09:56:03 AM -17.9880 -44.4510 346° North 433 498 35,000  Level FlightAware ADS-B
Sat 09:56:47 AM -17.8990 -44.4750 346° North 435 501 35,000 71 Level FlightAware ADS-B
Sat 09:57:27 AM -17.8150 -44.4970 346° North 435 501 35,100  Climbing FlightAware ADS-B
Sat 09:58:13 AM -17.7300 -44.5200 346° North 433 498 35,000 -60 Descending FlightAware ADS-B
Sat 09:59:07 AM -17.6260 -44.5480 346° North 432 497 35,000  Level FlightAware ADS-B
Sat 09:59:47 AM -17.5460 -44.5670 347° North 434 499 35,000  Level FlightAware ADS-B
Sat 10:00:48 AM -17.4250 -44.5970 347° North 437 503 35,000  Level FlightAware ADS-B
Sat 10:01:23 AM -17.3570 -44.6140 347° North 439 505 35,000  Level FlightAware ADS-B
Sat 10:02:08 AM -17.2710 -44.6350 347° North 441 507 35,000  Level FlightAware ADS-B
Sat 10:02:47 AM -17.1920 -44.6540 347° North 442 509 35,000  Level FlightAware ADS-B
Sat 10:03:28 AM -17.1090 -44.6750 346° North 442 509 35,000  Level FlightAware ADS-B
Sat 10:04:17 AM -17.0070 -44.7000 347° North 441 507 35,000  Level FlightAware ADS-B
Sat 10:04:57 AM -16.9320 -44.7180 347° North 441 507 35,000  Level FlightAware ADS-B
Sat 10:05:53 AM -16.8160 -44.7470 347° North 443 510 35,000  Level FlightAware ADS-B
Sat 10:06:32 AM -16.7350 -44.7680 346° North 443 510 35,000  Level FlightAware ADS-B
Sat 10:07:18 AM -16.6460 -44.7900 347° North 444 511 35,000  Level FlightAware ADS-B
Sat 10:07:57 AM -16.5730 -44.8090 346° North 444 511 35,000  Level FlightAware ADS-B
Sat 10:08:57 AM -16.4440 -44.8410 347° North 446 513 35,000  Level FlightAware ADS-B
Sat 10:10:13 AM -16.3070 -44.8750 347° North 447 514 35,000  Level FlightAware ADS-B
Sat 10:10:57 AM -16.2070 -44.9000 347° North 446 513 35,000  Level FlightAware ADS-B
Sat 10:11:48 AM -16.1200 -44.9230 346° North 446 513 35,000  Level FlightAware ADS-B
Sat 10:12:24 AM -16.0590 -44.9390 346° North 446 513 35,000  Level FlightAware ADS-B
Sat 10:13:12 AM -15.9770 -44.9600 346° North 446 513 35,000  Level FlightAware ADS-B
Sat 10:13:51 AM -15.9110 -44.9770 346° North 446 513 35,000  Level FlightAware ADS-B
Sat 10:14:28 AM -15.8480 -44.9930 346° North 446 513 35,000  Level FlightAware ADS-B
Sat 10:15:16 AM -15.7660 -45.0140 346° North 446 513 35,000  Level FlightAware ADS-B
Sat 10:15:54 AM -15.7010 -45.0310 346° North 446 513 35,000  Level FlightAware ADS-B
Sat 10:16:34 AM -15.6330 -45.0490 346° North 446 513 35,000  Level FlightAware ADS-B
Sat 10:17:22 AM -15.5520 -45.0700 346° North 446 513 35,000  Level FlightAware ADS-B
Sat 10:17:58 AM -15.4900 -45.0860 346° North 446 513 35,000  Level FlightAware ADS-B
Sat 10:18:46 AM -15.4090 -45.1070 346° North 446 513 35,000  Level FlightAware ADS-B
Sat 10:19:21 AM -15.3490 -45.1220 346° North 446 513 35,000  Level FlightAware ADS-B
Sat 10:20:10 AM -15.2660 -45.1440 346° North 446 513 35,000  Level FlightAware ADS-B
Sat 10:22:00 AM -15.0718 -45.1928 346° North  Level Estimated
Sat 10:23:00 AM -14.9658 -45.2194 346° North  Level Estimated
Sat 10:24:00 AM -14.8599 -45.2459 346° North  Level Estimated
Sat 10:25:00 AM -14.7540 -45.2724 346° North  Level Estimated
Sat 10:26:00 AM -14.6480 -45.2989 346° North  Level Estimated
Sat 10:27:00 AM -14.5421 -45.3254 346° North  Level Estimated
Sat 10:28:00 AM -14.4361 -45.3518 346° North  Level Estimated
Sat 10:29:00 AM -14.3301 -45.3783 346° North  Level Estimated
Sat 10:30:00 AM -14.2242 -45.4047 346° North  Level Estimated
Sat 10:31:00 AM -14.1182 -45.4310 346° North  Level Estimated
Sat 10:32:00 AM -14.0122 -45.4574 346° North  Level Estimated
Sat 10:33:00 AM -13.9063 -45.4837 346° North  Level Estimated
Sat 10:34:00 AM -13.7899 -45.5126 346° North  Level Estimated
Sat 10:35:00 AM -13.6736 -45.5414 346° North  Level Estimated
Sat 10:36:00 AM -13.5572 -45.5702 346° North  Level Estimated
Sat 10:37:00 AM -13.4409 -45.5990 346° North  Level Estimated
Sat 10:38:00 AM -13.3245 -45.6278 346° North  Level Estimated
Sat 10:39:00 AM -13.2082 -45.6565 346° North  Level Estimated
Sat 10:40:00 AM -13.0918 -45.6852 346° North  Level Estimated
Sat 10:41:00 AM -12.9755 -45.7138 346° North  Level Estimated
Sat 10:42:00 AM -12.8591 -45.7425 347° North  Level Estimated
Sat 10:43:00 AM -12.7427 -45.7711 347° North  Level Estimated
Sat 10:44:00 AM -12.6264 -45.7997 347° North  Level Estimated
Sat 10:45:00 AM -12.5100 -45.8283 347° North  Level Estimated
Sat 10:46:00 AM -12.3936 -45.8568 347° North  Level Estimated
Sat 10:47:00 AM -12.2772 -45.8853 347° North  Level Estimated
Sat 10:48:00 AM -12.1608 -45.9138 347° North  Level Estimated
Sat 10:49:00 AM -12.0444 -45.9423 347° North  Level Estimated
Sat 10:50:00 AM -11.9281 -45.9707 347° North  Level Estimated
Sat 10:51:00 AM -11.8117 -45.9992 347° North  Level Estimated
Sat 10:52:00 AM -11.6953 -46.0275 347° North  Level Estimated
Sat 10:53:00 AM -11.5789 -46.0559 347° North  Level Estimated
Sat 10:54:00 AM -11.4625 -46.0843 347° North  Level Estimated
Sat 10:55:00 AM -11.3461 -46.1126 347° North  Level Estimated
Sat 10:56:00 AM -11.2296 -46.1409 347° North  Level Estimated
Sat 10:57:00 AM -11.1132 -46.1692 347° North  Level Estimated
Sat 10:58:00 AM -10.9968 -46.1974 347° North  Level Estimated
Sat 10:59:00 AM -10.8804 -46.2257 347° North  Level Estimated
Sat 11:00:00 AM -10.7640 -46.2539 347° North  Level Estimated
Sat 11:01:00 AM -10.6476 -46.2821 347° North  Level Estimated
Sat 11:02:00 AM -10.5312 -46.3102 347° North  Level Estimated
Sat 11:03:00 AM -10.4147 -46.3384 347° North  Level Estimated
Sat 11:04:00 AM -10.2983 -46.3665 347° North  Level Estimated
Sat 11:05:00 AM -10.1819 -46.3946 347° North  Level Estimated
Sat 11:06:00 AM -10.0654 -46.4227 347° North  Level Estimated
Sat 11:07:00 AM -9.9490 -46.4507 347° North  Level Estimated
Sat 11:08:00 AM -9.8326 -46.4788 347° North  Level Estimated
Sat 11:09:00 AM -9.7161 -46.5068 347° North  Level Estimated
Sat 11:09:41 AM -9.0550 -46.6970 347° North 455 524 35,000  Level FlightAware ADS-B
Sat 11:10:00 AM -9.5997 -46.5348 347° North  Level Estimated
Sat 11:10:17 AM -8.9970 -46.7270 333° Northwest 455 524 35,000  Level FlightAware ADS-B
Sat 11:10:57 AM -8.9330 -46.7600 333° Northwest 455 524 35,000  Level FlightAware ADS-B
Sat 11:11:46 AM -8.8120 -46.8150 336° Northwest 458 527 35,000  Level FlightAware ADS-B
Sat 11:12:28 AM -8.7420 -46.8470 336° Northwest 458 527 35,000 61 Level FlightAware ADS-B
Sat 11:13:24 AM -8.6440 -46.8900 337° Northwest 457 526 35,100 65 Climbing FlightAware ADS-B
Sat 11:14:01 AM -8.5830 -46.9170 336° Northwest 457 526 35,100  Level FlightAware ADS-B
Sat 11:14:49 AM -8.5040 -46.9530 336° Northwest 457 526 35,100  Level FlightAware ADS-B
Sat 11:15:24 AM -8.4460 -46.9780 337° Northwest 457 526 35,100  Level FlightAware ADS-B
Sat 11:16:10 AM -8.3710 -47.0120 336° Northwest 457 526 35,100  Level FlightAware ADS-B
Sat 11:16:46 AM -8.3120 -47.0390 336° Northwest 457 526 35,100  Level FlightAware ADS-B
Sat 11:17:34 AM -8.2330 -47.0740 336° Northwest 457 526 35,100  Level FlightAware ADS-B
Sat 11:18:10 AM -8.1740 -47.1010 336° Northwest 457 526 35,100  Level FlightAware ADS-B
Sat 11:18:58 AM -8.0950 -47.1370 336° Northwest 457 526 35,100  Level FlightAware ADS-B
Sat 11:19:35 AM -8.0340 -47.1640 336° Northwest 457 526 35,100  Level FlightAware ADS-B
Sat 11:20:50 AM -7.9110 -47.2190 336° Northwest 457 526 35,100  Level FlightAware ADS-B
Sat 11:21:38 AM -7.8320 -47.2550 336° Northwest 457 526 35,100  Level FlightAware ADS-B
Sat 11:22:14 AM -7.7730 -47.2810 336° Northwest 457 526 35,100 -544 Level FlightAware ADS-B
Sat 11:24:00 AM -7.5652 -47.3203 349° North  Level Estimated
Sat 11:25:00 AM -7.4476 -47.3425 349° North  Level Estimated
Sat 11:26:00 AM -7.3299 -47.3647 349° North  Level Estimated
Sat 11:27:00 AM -7.2123 -47.3869 349° North  Level Estimated
Sat 11:28:00 AM -7.0947 -47.4090 349° North  Level Estimated
Sat 11:29:00 AM -6.9770 -47.4312 349° North  Level Estimated
Sat 11:30:00 AM -6.8594 -47.4534 349° North  Level Estimated
Sat 11:31:00 AM -6.7418 -47.4755 349° North  Level Estimated
Sat 11:32:00 AM -6.6242 -47.4976 349° North  Level Estimated
Sat 11:33:00 AM -6.5065 -47.5197 349° North  Level Estimated
Sat 11:34:00 AM -6.3889 -47.5419 349° North  Level Estimated
Sat 11:35:00 AM -6.2713 -47.5639 349° North  Level Estimated
Sat 11:36:00 AM -6.1536 -47.5860 349° North  Level Estimated
Sat 11:37:00 AM -6.0360 -47.6081 349° North  Level Estimated
Sat 11:38:00 AM -5.9183 -47.6302 349° North  Level Estimated
Sat 11:39:00 AM -5.8007 -47.6522 349° North  Level Estimated
Sat 11:40:00 AM -5.6831 -47.6743 349° North  Level Estimated
Sat 11:41:00 AM -5.5654 -47.6963 349° North  Level Estimated
Sat 11:42:00 AM -5.4478 -47.7184 349° North  Level Estimated
Sat 11:43:00 AM -5.3301 -47.7404 349° North  Level Estimated
Sat 11:44:00 AM -5.2125 -47.7624 349° North  Level Estimated
Sat 11:45:00 AM -5.0949 -47.7844 349° North  Level Estimated
Sat 11:46:00 AM -4.9772 -47.8064 349° North  Level Estimated
Sat 11:47:00 AM -4.8596 -47.8284 349° North  Level Estimated
Sat 11:48:00 AM -4.7419 -47.8504 349° North  Level Estimated
Sat 11:49:00 AM -4.6243 -47.8724 349° North  Level Estimated
Sat 11:50:00 AM -4.5066 -47.8943 349° North  Level Estimated
Sat 11:51:00 AM -4.3890 -47.9163 349° North  Level Estimated
Sat 11:52:00 AM -4.2713 -47.9383 349° North  Level Estimated
Sat 11:53:00 AM -4.1537 -47.9602 349° North  Level Estimated
Sat 11:54:00 AM -4.0360 -47.9822 349° North  Level Estimated
Sat 11:55:00 AM -3.9184 -48.0041 349° North  Level Estimated
Sat 11:56:00 AM -3.8007 -48.0260 349° North  Level Estimated
Sat 11:57:00 AM -3.6831 -48.0479 349° North  Level Estimated
Sat 11:58:00 AM -3.5654 -48.0699 349° North  Level Estimated
Sat 11:59:00 AM -3.4478 -48.0918 349° North  Level Estimated
Sat 12:00:00 PM -3.3301 -48.1137 349° North  Level Estimated
Sat 12:01:00 PM -3.2125 -48.1356 349° North  Level Estimated
Sat 12:02:00 PM -3.0948 -48.1575 349° North  Level Estimated
Sat 12:03:00 PM -2.9772 -48.1794 349° North  Level Estimated
Sat 12:04:00 PM -2.8595 -48.2013 349° North  Level Estimated
Sat 12:05:00 PM -2.7418 -48.2231 349° North  Level Estimated
Sat 12:06:00 PM -2.6242 -48.2450 349° North  Level Estimated
Sat 12:07:00 PM -2.5065 -48.2669 349° North  Level Estimated
Sat 12:08:00 PM -2.3889 -48.2888 349° North  Level Estimated
Sat 12:09:00 PM -2.2712 -48.3106 349° North  Level Estimated
Sat 12:10:00 PM -2.1535 -48.3325 349° North  Level Estimated
Sat 12:10:52 PM -1.8180 -48.4540 349° North 308 354 8,300  Level FlightAware ADS-B
Sat 12:11:00 PM -2.0359 -48.3544 349° North  Level Estimated
Sat 12:11:22 PM -1.7860 -48.4700 333° Northwest 308 354 8,300  Level FlightAware ADS-B
Sat 12:12:23 PM -1.7180 -48.5030 334° Northwest 299 344 6,300 -1,933 Descending FlightAware ADS-B
Sat 12:12:52 PM -1.6700 -48.5270 333° Northwest 294 338 5,400 -1,220 Descending FlightAware ADS-B
Sat 12:13:22 PM -1.6300 -48.5460 335° Northwest 269 310 5,100 -590 Descending FlightAware ADS-B
Sat 12:13:53 PM -1.5980 -48.5610 335° Northwest 249 287 4,800 -321 Descending FlightAware ADS-B
Sat 12:14:18 PM -1.5760 -48.5730 331° Northwest 249 287 4,800 -1,169 Level FlightAware ADS-B
Sat 12:15:10 PM -1.5980 -48.5610 151° Southeast 249 287 3,300 -1,586 Descending FlightAware ADS-B
Sat 12:15:45 PM -1.4890 -48.5860 347° North 219 252 2,500 -762 Descending FlightAware ADS-B
Sat 12:16:13 PM -1.4700 -48.5710 38° Northeast 219 252 2,500 -923 Level FlightAware ADS-B
Sat 12:16:37 PM -1.4520 -48.5490 51° Northeast 218 251 1,700 -1,309 Descending FlightAware ADS-B
Sat 12:17:08 PM -1.4360 -48.5340 43° Northeast 159 183 1,300 -875 Descending FlightAware ADS-B
Sat 12:17:25 PM -1.4260 -48.5230 48° Northeast 151 174 1,000 -837 Descending FlightAware ADS-B
Sat 12:17:51 PM -1.4130 -48.5110 43° Northeast 147 169 700 -679 Descending FlightAware ADS-B
Sat 12:18:18 PM -1.4010 -48.4980 47° Northeast 147 169 400 -667 Descending FlightAware ADS-B
Sat 12:20:00 PM -1.3793 -48.4763 45° Northeast  Level Estimated
Sat 12:21:00 PM -1.3793 -48.4763 270° West  Level Estimated
Sat 12:22:00 PM -1.3793 -48.4763 270° West  Level Estimated
Sat 12:23:00 PM -1.3793 -48.4763 270° West  Level Estimated
Sat 12:24:00 PM -1.3793 -48.4763 270° West  Level Estimated
Sat 12:25:00 PM -1.3793 -48.4763 270° West  Level Estimated
Sat 12:26:00 PM -1.3793 -48.4763 270° West  Level Estimated
Sat 12:27:00 PM -1.3793 -48.4763 270° West  Level Estimated
Sat 12:28:00 PM -1.3793 -48.4763 270° West  Level Estimated
Sat 12:29:00 PM -1.3793 -48.4763 270° West  Level Estimated
Sat 12:30:00 PM -1.3793 -48.4763 270° West  Level Estimated
Sat 12:31:00 PM -1.3793 -48.4763 270° West  Level Estimated

Login

Don't have an account? Register now (free) for customized features, flight alerts, and more!